Time;durP1;ratioP1;P1;durP2;ratioP2;P2;SDS_P1;SDS_P2;PMS_P1;PMS_P2;Temp;Humidity;BMP_temperature;BMP_pressure;BME280_temperature;BME280_humidity;BME280_pressure;Samples;Min_cycle;Max_cycle;Signal;HPM_P1;HPM_P2
2023/12/19 00:00:48;;;;;;;15.35;6.38;;;;;;;4.25;76.16;102458.13;10359512;28;96632;-82
2023/12/19 00:05:52;;;;;;;11.75;5.68;;;;;;;4.28;75.94;102465.13;10334990;28;96955;-82
2023/12/19 00:10:55;;;;;;;11.50;5.40;;;;;;;4.27;75.92;102459.03;10334159;28;96598;-82
2023/12/19 00:16:03;;;;;;;10.02;4.90;;;;;;;4.30;75.88;102453.00;10364599;28;97147;-82
2023/12/19 00:21:06;;;;;;;10.82;4.97;;;;;;;4.26;75.86;102440.75;10373344;28;96901;-82
2023/12/19 00:26:13;;;;;;;10.23;5.10;;;;;;;4.22;75.05;102433.75;10375005;28;97032;-82
2023/12/19 00:31:22;;;;;;;9.75;4.63;;;;;;;4.27;75.34;102439.94;10374660;28;96627;-82
2023/12/19 00:36:25;;;;;;;9.50;4.70;;;;;;;4.21;75.35;102434.56;10374499;28;96980;-82
2023/12/19 00:41:29;;;;;;;8.43;4.70;;;;;;;4.16;75.61;102424.06;10374050;28;96741;-83
2023/12/19 00:46:34;;;;;;;11.27;5.70;;;;;;;4.15;76.09;102422.28;10374188;28;96877;-82
2023/12/19 00:51:38;;;;;;;;;;;;;;;4.18;76.26;102419.78;10374436;28;96724;-82
2023/12/19 00:56:42;;;;;;;11.13;5.03;;;;;;;4.15;75.89;102418.84;10375090;28;96697;-82
2023/12/19 01:01:47;;;;;;;9.90;5.05;;;;;;;4.12;75.51;102414.41;10373681;28;97135;-82
2023/12/19 01:06:52;;;;;;;12.77;5.72;;;;;;;4.15;76.11;102411.88;10350942;28;96716;-82
2023/12/19 01:11:56;;;;;;;11.60;5.78;;;;;;;4.13;75.94;102416.19;10330985;28;96801;-82
2023/12/19 01:17:02;;;;;;;9.43;4.90;;;;;;;4.10;75.94;102408.28;10332428;28;96652;-82
2023/12/19 01:22:06;;;;;;;9.77;4.68;;;;;;;4.10;75.93;102410.91;10331314;28;97213;-82
2023/12/19 01:27:11;;;;;;;8.65;4.28;;;;;;;4.07;76.23;102397.81;10331905;28;97143;-83
2023/12/19 01:32:17;;;;;;;8.25;4.65;;;;;;;4.05;75.50;102402.13;10330766;28;97302;-83
2023/12/19 01:37:21;;;;;;;9.38;4.70;;;;;;;4.02;75.68;102406.38;10331491;28;97132;-82
2023/12/19 01:42:25;;;;;;;7.65;4.30;;;;;;;4.04;75.93;102405.56;10289838;28;96814;-81
2023/12/19 01:47:30;;;;;;;9.02;4.10;;;;;;;4.01;75.76;102402.03;10290170;28;96742;-82
2023/12/19 01:52:34;;;;;;;10.43;4.20;;;;;;;4.01;75.74;102400.28;10323053;28;96937;-82
2023/12/19 01:57:39;;;;;;;8.73;4.85;;;;;;;3.96;76.04;102398.44;10329697;28;97376;-83
2023/12/19 02:02:45;;;;;;;8.32;4.35;;;;;;;3.95;76.20;102401.88;10329255;28;96648;-82
2023/12/19 02:07:49;;;;;;;8.98;4.13;;;;;;;3.93;75.73;102403.56;10361199;28;97412;-82
2023/12/19 02:12:53;;;;;;;11.02;4.72;;;;;;;3.92;76.15;102409.63;10371458;28;97209;-82
2023/12/19 02:17:58;;;;;;;8.23;3.85;;;;;;;3.91;75.81;102398.34;10371785;28;97011;-82
2023/12/19 02:23:04;;;;;;;6.68;3.97;;;;;;;3.90;76.05;102401.78;10371049;28;96999;-82
2023/12/19 02:28:08;;;;;;;7.60;4.65;;;;;;;3.89;76.64;102393.97;10371809;28;96927;-82
2023/12/19 02:33:12;;;;;;;7.15;4.22;;;;;;;3.91;76.18;102415.72;10370949;28;97216;-82
2023/12/19 02:38:19;;;;;;;8.02;4.25;;;;;;;3.85;76.19;102408.63;10361602;28;96709;-82
2023/12/19 02:43:23;;;;;;;7.75;4.00;;;;;;;3.88;76.65;102400.00;10355146;28;96646;-81
2023/12/19 02:48:27;;;;;;;8.63;4.65;;;;;;;3.86;76.35;102399.97;10370777;28;97246;-82
2023/12/19 02:53:35;;;;;;;8.65;4.80;;;;;;;3.79;76.84;102392.00;10369705;28;97257;-83
2023/12/19 02:58:41;;;;;;;5.55;3.03;;;;;;;3.75;76.30;102383.25;10370494;28;96685;-81
2023/12/19 03:03:45;;;;;;;8.48;4.30;;;;;;;3.77;76.60;102388.50;10341386;28;97089;-82
2023/12/19 03:08:57;;;;;;;8.52;3.70;;;;;;;3.76;76.74;102374.56;10331801;28;96936;-83
2023/12/19 03:14:01;;;;;;;8.35;4.28;;;;;;;3.76;76.59;102369.38;10328594;28;96567;-82
2023/12/19 03:19:05;;;;;;;7.68;3.40;;;;;;;3.72;76.28;102367.53;10328939;28;97016;-82
2023/12/19 03:24:12;;;;;;;8.93;3.85;;;;;;;3.72;76.38;102371.88;10328057;28;96995;-82
2023/12/19 03:29:15;;;;;;;8.95;4.43;;;;;;;3.75;76.94;102370.22;10329313;28;96912;-82
2023/12/19 03:34:19;;;;;;;9.27;4.13;;;;;;;3.74;76.36;102370.16;10327844;28;96669;-82
2023/12/19 03:39:24;;;;;;;10.68;4.80;;;;;;;3.71;76.55;102364.91;10327614;28;96910;-82
2023/12/19 03:44:27;;;;;;;7.57;4.00;;;;;;;3.70;76.40;102364.00;10326639;28;96751;-83
2023/12/19 03:49:31;;;;;;;7.53;4.05;;;;;;;3.65;76.56;102373.44;10327862;28;97427;-82
2023/12/19 03:54:38;;;;;;;6.90;4.45;;;;;;;3.67;76.31;102360.47;10328481;28;97061;-82
2023/12/19 03:59:43;;;;;;;7.90;4.35;;;;;;;3.64;76.40;102368.22;10326995;28;96749;-82
2023/12/19 04:04:47;;;;;;;7.85;3.72;;;;;;;3.63;77.00;102369.97;10297036;28;96880;-82
2023/12/19 04:09:52;;;;;;;6.15;3.10;;;;;;;3.59;76.32;102367.25;10334086;28;96785;-82
2023/12/19 04:14:55;;;;;;;7.75;3.78;;;;;;;3.61;76.32;102360.34;10372334;28;96632;-82
2023/12/19 04:20:00;;;;;;;8.30;3.53;;;;;;;3.59;76.30;102356.81;10377093;28;97059;-82
2023/12/19 04:25:08;;;;;;;10.95;3.85;;;;;;;3.61;76.63;102357.75;10375166;28;97144;-82
2023/12/19 04:30:16;;;;;;;8.05;3.80;;;;;;;3.56;77.18;102352.44;10374591;28;96792;-82
2023/12/19 04:35:19;;;;;;;10.98;4.13;;;;;;;3.52;76.91;102353.22;10345052;28;97660;-82
2023/12/19 04:40:26;;;;;;;5.43;2.90;;;;;;;3.54;76.89;102363.66;10375171;28;96651;-82
2023/12/19 04:45:30;;;;;;;8.00;3.40;;;;;;;3.52;76.69;102350.63;10374560;28;97559;-82
2023/12/19 04:50:34;;;;;;;9.38;4.20;;;;;;;3.52;76.44;102342.81;10374543;28;96606;-83
2023/12/19 04:55:38;;;;;;;7.10;3.33;;;;;;;3.47;76.38;102343.53;10374555;28;96905;-82
2023/12/19 05:00:44;;;;;;;9.13;4.40;;;;;;;3.52;76.53;102348.00;10373868;28;97216;-82
2023/12/19 05:05:47;;;;;;;6.88;3.90;;;;;;;3.46;77.10;102336.59;10359621;28;96846;-82
2023/12/19 05:10:52;;;;;;;8.90;4.25;;;;;;;3.44;76.64;102343.47;10334168;28;97765;-82
2023/12/19 05:15:56;;;;;;;7.80;3.72;;;;;;;3.45;76.74;102335.72;10332469;28;97054;-82
2023/12/19 05:21:01;;;;;;;6.97;4.38;;;;;;;3.51;76.75;102337.56;10330843;28;97150;-82
2023/12/19 05:26:06;;;;;;;6.97;3.73;;;;;;;3.48;76.72;102347.94;10330201;28;96600;-82
2023/12/19 05:31:10;;;;;;;9.50;3.90;;;;;;;3.47;76.63;102341.84;10314503;28;96614;-82
2023/12/19 05:36:14;;;;;;;7.47;3.58;;;;;;;3.50;76.60;102344.50;10323303;22;96796;-82
2023/12/19 05:41:22;;;;;;;7.57;3.95;;;;;;;3.44;76.89;102348.69;10331389;28;97319;-82
2023/12/19 05:46:25;;;;;;;13.05;4.47;;;;;;;3.41;76.75;102353.84;10331458;28;97096;-82
2023/12/19 05:51:29;;;;;;;7.82;3.85;;;;;;;3.43;76.78;102345.19;10330830;28;97343;-82
2023/12/19 05:56:36;;;;;;;6.60;3.83;;;;;;;3.40;76.63;102359.88;10331100;28;97071;-82
2023/12/19 06:01:44;;;;;;;7.38;3.53;;;;;;;3.41;76.31;102369.44;10331040;28;96821;-82
2023/12/19 06:06:56;;;;;;;6.43;3.55;;;;;;;3.41;76.15;102362.50;10330500;28;97415;-82
2023/12/19 06:12:01;;;;;;;10.05;5.15;;;;;;;3.39;76.36;102368.53;10329930;28;96797;-82
2023/12/19 06:17:05;;;;;;;8.05;3.45;;;;;;;3.39;76.21;102369.38;10328818;28;96606;-82
2023/12/19 06:22:10;;;;;;;7.55;3.30;;;;;;;3.38;76.61;102367.63;10330055;28;97432;-83
2023/12/19 06:27:16;;;;;;;;;;;;;;;3.37;76.30;102368.50;10330251;28;97135;-83
2023/12/19 06:32:19;;;;;;;7.32;3.88;;;;;;;3.38;76.19;102372.84;10329645;28;96717;-82
2023/12/19 06:37:23;;;;;;;8.45;4.32;;;;;;;3.33;76.84;102375.34;10354708;28;96740;-82
2023/12/19 06:42:27;;;;;;;7.65;3.42;;;;;;;3.35;76.33;102375.38;10371263;28;97240;-82
2023/12/19 06:47:35;;;;;;;6.63;3.25;;;;;;;3.36;76.17;102374.53;10370643;28;97320;-82
2023/12/19 06:52:39;;;;;;;8.18;3.45;;;;;;;3.31;76.39;102379.63;10371326;28;96667;-82
2023/12/19 06:57:44;;;;;;;7.95;3.65;;;;;;;3.37;76.92;102399.72;10370465;28;96810;-82
2023/12/19 07:02:48;;;;;;;6.47;3.40;;;;;;;3.33;76.35;102397.88;10358151;28;97254;-82
2023/12/19 07:07:51;;;;;;;5.65;3.10;;;;;;;3.30;75.88;102397.81;10368829;28;97617;-83
2023/12/19 07:12:58;;;;;;;5.05;2.88;;;;;;;3.30;76.23;102395.22;10369969;28;98335;-82
2023/12/19 07:18:05;;;;;;;9.23;3.45;;;;;;;3.29;75.88;102399.53;10369535;28;96597;-82
2023/12/19 07:23:09;;;;;;;6.03;3.20;;;;;;;3.25;76.90;102402.88;10369819;28;96686;-82
2023/12/19 07:28:15;;;;;;;6.78;3.55;;;;;;;3.25;77.05;102404.63;10335874;28;96872;-82
2023/12/19 07:33:18;;;;;;;6.88;3.78;;;;;;;3.22;76.54;102407.13;10371343;28;96641;-82
2023/12/19 07:38:22;;;;;;;7.78;4.35;;;;;;;3.23;76.63;102406.31;10342753;28;96637;-83
2023/12/19 07:43:27;;;;;;;7.30;3.92;;;;;;;3.23;76.65;102411.50;10335870;28;96676;-83
2023/12/19 07:48:30;;;;;;;7.50;3.63;;;;;;;3.22;76.78;102401.94;10335687;28;96849;-83
2023/12/19 07:53:34;;;;;;;7.05;3.58;;;;;;;3.20;76.84;102404.50;10335691;28;96611;-82
2023/12/19 07:58:47;;;;;;;5.47;3.25;;;;;;;3.17;76.59;102399.22;10333931;28;96962;-82
2023/12/19 08:03:53;;;;;;;6.50;3.58;;;;;;;3.18;77.06;102400.97;10293495;28;97371;-82
2023/12/19 08:09:04;;;;;;;4.88;3.15;;;;;;;3.21;76.10;102405.38;10304461;28;96670;-82
2023/12/19 08:14:09;;;;;;;6.78;4.05;;;;;;;3.21;76.42;102413.19;10334145;28;96572;-83
2023/12/19 08:19:14;;;;;;;7.50;3.30;;;;;;;3.23;76.22;102425.38;10334211;28;96797;-82
2023/12/19 08:24:18;;;;;;;6.95;3.67;;;;;;;3.27;76.14;102427.22;10352482;28;97348;-82
2023/12/19 08:29:23;;;;;;;8.77;4.22;;;;;;;3.25;75.88;102435.84;10341480;28;96702;-82
2023/12/19 08:34:26;;;;;;;9.25;3.35;;;;;;;3.24;75.97;102429.75;10333583;28;97076;-82
2023/12/19 08:39:30;;;;;;;7.50;3.03;;;;;;;3.29;75.62;102441.16;10333403;28;96728;-82
2023/12/19 08:44:35;;;;;;;6.65;3.55;;;;;;;3.33;75.96;102421.28;10332634;28;97161;-82
2023/12/19 08:49:43;;;;;;;9.05;4.43;;;;;;;3.37;76.09;102422.25;10332269;28;97259;-82
2023/12/19 08:54:46;;;;;;;7.90;3.63;;;;;;;3.55;75.90;102426.16;10332695;28;97337;-82
2023/12/19 08:59:51;;;;;;;6.93;4.07;;;;;;;3.55;75.20;102426.16;10332499;28;96769;-82
2023/12/19 09:04:55;;;;;;;7.18;3.78;;;;;;;3.50;75.11;102438.19;10332383;28;97046;-82
2023/12/19 09:09:58;;;;;;;9.27;4.53;;;;;;;3.53;75.21;102426.97;10332496;28;96612;-82
2023/12/19 09:15:06;;;;;;;9.30;4.20;;;;;;;3.60;75.02;102429.75;10332075;28;96791;-82
2023/12/19 09:20:11;;;;;;;7.43;3.72;;;;;;;3.72;75.41;102440.44;10334421;28;97288;-82
2023/12/19 09:25:15;;;;;;;;;;;;;;;3.86;74.46;102427.72;10365548;28;96888;-83
2023/12/19 09:30:21;;;;;;;7.07;3.58;;;;;;;3.93;74.27;102442.63;10332262;28;96600;-82
2023/12/19 09:35:24;;;;;;;10.02;3.97;;;;;;;3.94;73.74;102442.69;10331244;28;97469;-82
2023/12/19 09:40:30;;;;;;;9.52;4.68;;;;;;;3.97;73.58;102453.19;10330767;28;97117;-83
2023/12/19 09:45:38;;;;;;;7.80;4.03;;;;;;;4.06;74.34;102450.78;10331610;28;97055;-82
2023/12/19 09:50:43;;;;;;;7.90;3.78;;;;;;;4.20;73.67;102451.06;10331102;28;97021;-82
2023/12/19 09:55:47;;;;;;;10.48;4.15;;;;;;;4.25;73.04;102455.53;10329747;28;96841;-82
2023/12/19 10:00:53;;;;;;;11.17;4.67;;;;;;;4.37;73.49;102454.91;10330204;28;96875;-83
2023/12/19 10:05:57;;;;;;;6.88;3.72;;;;;;;4.46;72.52;102458.56;10330534;28;97015;-83
2023/12/19 10:11:03;;;;;;;10.77;5.20;;;;;;;4.46;72.43;102458.56;10331023;28;96928;-82
2023/12/19 10:16:09;;;;;;;11.18;4.78;;;;;;;4.48;72.90;102462.06;10331397;28;97506;-83
2023/12/19 10:21:34;;;;;;;8.73;4.90;;;;;;;4.41;72.16;102469.75;10330252;28;96906;-82
2023/12/19 10:26:38;;;;;;;10.20;5.32;;;;;;;4.67;71.97;102473.75;10329971;28;97155;-82
2023/12/19 10:31:45;;;;;;;11.35;5.03;;;;;;;4.58;72.60;102473.59;10329317;28;96730;-83
2023/12/19 10:36:49;;;;;;;10.88;5.40;;;;;;;4.77;72.63;102465.28;10350022;28;97219;-82
2023/12/19 10:42:05;;;;;;;10.53;5.13;;;;;;;4.81;72.12;102450.56;10370911;28;97418;-83
2023/12/19 10:47:10;;;;;;;9.07;5.07;;;;;;;4.81;71.94;102453.16;10370837;28;97093;-82
2023/12/19 10:52:14;;;;;;;11.38;5.63;;;;;;;4.85;71.83;102462.78;10370800;28;96716;-82
2023/12/19 10:57:20;;;;;;;8.70;5.40;;;;;;;4.86;71.06;102461.97;10346588;28;97165;-82
2023/12/19 11:02:37;;;;;;;8.73;4.85;;;;;;;4.96;71.09;102464.75;10322195;28;97280;-82
2023/12/19 11:07:45;;;;;;;9.35;5.50;;;;;;;5.05;71.28;102454.47;10336988;28;97186;-82
2023/12/19 11:12:52;;;;;;;9.80;5.28;;;;;;;4.96;70.89;102451.72;10295019;28;97216;-82
2023/12/19 11:18:04;;;;;;;11.70;6.00;;;;;;;5.07;70.16;102446.69;10317398;28;96643;-82
2023/12/19 11:23:18;;;;;;;9.32;4.63;;;;;;;5.02;70.34;102437.88;10334814;28;96655;-82
2023/12/19 11:28:24;;;;;;;10.93;5.25;;;;;;;5.13;70.49;102439.84;10335555;28;96721;-82
2023/12/19 11:33:37;;;;;;;8.77;5.00;;;;;;;5.15;70.02;102437.25;10336683;28;97230;-82
2023/12/19 11:38:42;;;;;;;15.27;6.30;;;;;;;5.14;70.67;102425.94;10334659;28;97097;-82
2023/12/19 11:43:55;;;;;;;10.93;5.97;;;;;;;5.31;69.76;102418.41;10335789;28;97162;-83
2023/12/19 11:49:02;;;;;;;12.27;5.13;;;;;;;5.24;69.75;102420.00;10335108;28;96602;-82
2023/12/19 11:54:10;;;;;;;11.30;6.40;;;;;;;5.25;69.47;102413.06;10331058;28;97532;-82
2023/12/19 11:59:15;;;;;;;14.30;6.00;;;;;;;5.40;69.32;102398.53;10297959;28;96801;-82
2023/12/19 12:04:25;;;;;;;11.18;5.55;;;;;;;5.58;69.38;102395.31;10334335;28;96676;-82
2023/12/19 12:09:30;;;;;;;10.20;5.47;;;;;;;5.43;68.92;102389.88;10334652;28;96753;-82
2023/12/19 12:14:34;;;;;;;10.13;5.75;;;;;;;5.38;69.51;102375.88;10333062;28;96761;-82
2023/12/19 12:19:41;;;;;;;12.00;6.57;;;;;;;5.30;68.67;102365.31;10333986;28;97369;-82
2023/12/19 12:24:45;;;;;;;12.50;6.30;;;;;;;5.41;69.29;102357.66;10333632;28;97321;-82
2023/12/19 12:29:51;;;;;;;15.10;6.78;;;;;;;5.32;68.89;102350.56;10333685;28;96536;-82
2023/12/19 12:34:56;;;;;;;11.80;5.45;;;;;;;5.41;69.88;102341.97;10333298;28;96996;-82
2023/12/19 12:40:04;;;;;;;10.13;6.13;;;;;;;5.51;69.71;102323.88;10333439;28;97196;-82
2023/12/19 12:45:08;;;;;;;12.23;6.15;;;;;;;5.50;69.53;102314.25;10333106;28;97922;-82
2023/12/19 12:50:20;;;;;;;11.63;5.80;;;;;;;5.65;68.97;102310.97;10322190;28;96782;-82
2023/12/19 12:55:24;;;;;;;12.98;6.82;;;;;;;5.70;68.88;102311.91;10291685;28;97374;-82
2023/12/19 13:00:28;;;;;;;11.63;6.80;;;;;;;5.65;68.11;102298.81;10305142;28;97282;-82
2023/12/19 13:05:34;;;;;;;13.93;7.38;;;;;;;5.69;68.83;102300.59;10289899;28;96947;-82
2023/12/19 13:10:38;;;;;;;12.35;6.78;;;;;;;5.72;68.68;102289.31;10291435;28;97173;-82
2023/12/19 13:15:43;;;;;;;16.30;7.57;;;;;;;6.31;67.94;102295.22;10302424;28;97525;-81
2023/12/19 13:20:48;;;;;;;18.42;9.63;;;;;;;7.78;64.05;102278.00;10332421;28;97460;-83
2023/12/19 13:25:53;;;;;;;15.73;8.27;;;;;;;8.42;61.15;102271.16;10331725;28;97666;-83
2023/12/19 13:30:57;;;;;;;16.07;8.60;;;;;;;7.91;62.86;102269.28;10331512;28;96778;-83
2023/12/19 13:36:02;;;;;;;15.30;8.32;;;;;;;7.27;64.25;102261.16;10330463;28;96646;-82
2023/12/19 13:41:08;;;;;;;19.55;9.25;;;;;;;6.95;65.24;102252.19;10332779;28;97057;-82
2023/12/19 13:46:14;;;;;;;14.48;7.72;;;;;;;6.60;65.84;102244.03;10331194;28;97157;-82
2023/12/19 13:51:20;;;;;;;19.35;9.82;;;;;;;6.49;66.20;102235.22;10331130;28;97550;-86
2023/12/19 13:56:23;;;;;;;;;;;;;;;6.25;66.59;102221.94;10330919;28;96802;-82
2023/12/19 14:01:26;;;;;;;15.60;8.05;;;;;;;6.27;67.16;102208.03;10330990;28;96746;-81
2023/12/19 14:06:33;;;;;;;19.20;9.98;;;;;;;6.23;66.91;102193.16;10329852;28;96850;-82
2023/12/19 14:11:39;;;;;;;13.93;7.43;;;;;;;6.15;66.82;102193.97;10328984;28;96790;-82
2023/12/19 14:16:43;;;;;;;14.50;7.57;;;;;;;6.13;67.74;102201.81;10330319;28;97227;-82
2023/12/19 14:21:49;;;;;;;15.13;7.95;;;;;;;6.24;66.87;102194.94;10329925;28;97164;-82
2023/12/19 14:26:53;;;;;;;12.10;7.07;;;;;;;6.30;66.75;102188.91;10329855;28;97019;-83
2023/12/19 14:31:57;;;;;;;16.17;7.70;;;;;;;6.35;67.03;102208.13;10330288;28;96700;-83
2023/12/19 14:37:03;;;;;;;12.63;7.43;;;;;;;6.31;67.07;102212.44;10351478;28;96710;-82
2023/12/19 14:42:07;;;;;;;15.55;8.40;;;;;;;6.42;66.95;102216.00;10368576;28;97268;-82
2023/12/19 14:47:11;;;;;;;15.60;7.25;;;;;;;7.47;63.56;102197.53;10307974;28;97199;-83
2023/12/19 14:52:15;;;;;;;14.68;8.20;;;;;;;8.53;62.19;102200.34;10288660;28;97203;-82
2023/12/19 14:57:19;;;;;;;16.45;8.45;;;;;;;9.40;59.72;102201.94;10321432;28;97424;-83
2023/12/19 15:02:23;;;;;;;13.73;6.70;;;;;;;9.90;58.55;102205.19;10299647;28;97176;-83
2023/12/19 15:07:28;;;;;;;15.18;8.00;;;;;;;10.24;58.57;102215.50;10288128;28;97215;-82
2023/12/19 15:12:33;;;;;;;16.38;8.65;;;;;;;11.17;56.95;102205.88;10288186;28;97476;-82
2023/12/19 15:17:38;;;;;;;12.53;8.30;;;;;;;11.63;56.84;102207.97;10324299;28;97461;-82
2023/12/19 15:22:45;;;;;;;16.10;9.15;;;;;;;11.69;56.69;102210.50;10329021;28;96796;-82
2023/12/19 15:27:49;;;;;;;13.88;7.93;;;;;;;12.41;55.48;102201.56;10328213;28;97041;-82
2023/12/19 15:32:54;;;;;;;15.75;9.18;;;;;;;11.64;55.71;102213.22;10349175;28;96769;-83
2023/12/19 15:38:00;;;;;;;13.98;9.07;;;;;;;10.97;55.46;102210.44;10367985;28;96723;-82
2023/12/19 15:43:03;;;;;;;16.55;9.45;;;;;;;11.02;57.07;102208.66;10315387;28;97092;-83
2023/12/19 15:48:07;;;;;;;17.05;9.73;;;;;;;10.64;57.27;102213.41;10334050;28;97139;-83
2023/12/19 15:53:12;;;;;;;21.83;12.27;;;;;;;10.39;57.37;102216.22;10359681;28;97359;-82
2023/12/19 15:58:16;;;;;;;35.20;18.77;;;;;;;10.08;57.99;102213.84;10334749;28;96762;-83
2023/12/19 16:03:20;;;;;;;30.50;16.33;;;;;;;9.98;58.16;102221.78;10296872;28;97326;-83
2023/12/19 16:08:26;;;;;;;23.65;14.07;;;;;;;9.54;58.37;102229.00;10327992;28;96899;-82
2023/12/19 16:13:30;;;;;;;19.75;11.80;;;;;;;8.81;59.88;102231.78;10334814;28;97293;-83
2023/12/19 16:18:34;;;;;;;21.30;11.18;;;;;;;8.34;60.91;102238.78;10333966;28;97332;-82
2023/12/19 16:23:39;;;;;;;22.58;11.63;;;;;;;8.16;61.94;102244.00;10334479;28;96730;-82
2023/12/19 16:29:03;;;;;;;22.70;12.97;;;;;;;7.52;63.13;102239.44;10333001;28;97164;-83
2023/12/19 16:34:09;;;;;;;19.65;11.13;;;;;;;7.03;65.36;102242.66;10333814;28;97074;-83
2023/12/19 16:39:14;;;;;;;30.10;14.02;;;;;;;6.81;65.48;102241.59;10333107;28;96715;-82
2023/12/19 16:44:18;;;;;;;24.38;13.50;;;;;;;6.56;66.20;102242.25;10333314;28;97730;-83
2023/12/19 16:49:21;;;;;;;24.15;12.60;;;;;;;6.41;66.95;102244.75;10332841;28;96567;-82
2023/12/19 16:54:26;;;;;;;20.80;11.98;;;;;;;6.25;67.72;102246.34;10332800;28;96814;-82
2023/12/19 16:59:32;;;;;;;24.27;12.70;;;;;;;6.13;67.83;102251.47;10326212;28;97016;-83
2023/12/19 17:04:40;;;;;;;23.38;12.55;;;;;;;6.06;67.60;102239.19;10292039;28;96834;-82
2023/12/19 17:09:45;;;;;;;24.92;12.25;;;;;;;5.97;68.61;102252.16;10302022;28;96709;-83
2023/12/19 17:14:49;;;;;;;22.55;11.52;;;;;;;5.89;68.89;102260.75;10332252;28;97184;-83
2023/12/19 17:19:52;;;;;;;22.02;12.02;;;;;;;5.75;69.43;102258.00;10331199;28;97334;-83
2023/12/19 17:24:59;;;;;;;28.20;13.13;;;;;;;5.72;69.62;102265.81;10332099;28;96696;-83
2023/12/19 17:30:04;;;;;;;28.27;12.80;;;;;;;5.65;70.24;102274.41;10331669;28;96681;-82
2023/12/19 17:35:08;;;;;;;21.90;12.27;;;;;;;5.59;69.83;102284.78;10335827;28;99342;-82
2023/12/19 17:40:13;;;;;;;21.67;11.52;;;;;;;5.48;71.19;102274.19;10290549;28;97334;-83
2023/12/19 17:45:17;;;;;;;18.27;11.18;;;;;;;5.45;72.15;102302.88;10289742;28;97132;-83
2023/12/19 17:50:25;;;;;;;23.80;10.73;;;;;;;5.48;71.89;102299.44;10324363;28;96785;-83
2023/12/19 17:55:31;;;;;;;22.92;11.48;;;;;;;5.44;71.77;102308.06;10331599;28;97183;-83
2023/12/19 18:00:35;;;;;;;21.88;11.48;;;;;;;5.45;70.52;102302.03;10316495;28;96586;-83
2023/12/19 18:05:39;;;;;;;24.88;11.88;;;;;;;5.42;71.08;102301.94;10325797;22;97053;-82
2023/12/19 18:10:45;;;;;;;19.85;10.88;;;;;;;5.35;71.71;102289.66;10370736;28;96747;-83
2023/12/19 18:15:48;;;;;;;26.33;12.30;;;;;;;5.33;72.40;102283.53;10370748;28;96694;-82
2023/12/19 18:20:56;;;;;;;22.63;11.85;;;;;;;5.35;71.82;102293.16;10371885;28;97063;-82
2023/12/19 18:26:03;;;;;;;25.35;12.35;;;;;;;5.20;72.97;102298.19;10369646;28;97388;-83
2023/12/19 18:31:07;;;;;;;23.38;12.60;;;;;;;5.23;72.42;102313.88;10371313;28;96638;-83
2023/12/19 18:36:11;;;;;;;24.27;12.05;;;;;;;5.26;73.05;102307.84;10370801;28;96584;-83
2023/12/19 18:41:17;;;;;;;20.80;10.55;;;;;;;5.32;73.12;102310.53;10371204;28;96781;-83
2023/12/19 18:46:21;;;;;;;21.00;11.10;;;;;;;5.48;72.87;102309.88;10371823;28;96973;-83
2023/12/19 18:51:27;;;;;;;18.95;10.05;;;;;;;5.49;72.60;102309.00;10370741;28;96786;-83
2023/12/19 18:56:32;;;;;;;16.63;9.40;;;;;;;5.56;72.11;102306.53;10371096;28;97338;-83
2023/12/19 19:01:37;;;;;;;20.50;11.00;;;;;;;5.59;72.12;102308.28;10346963;28;96626;-82
2023/12/19 19:06:42;;;;;;;;;;;;;;;5.53;72.43;102314.31;10328879;28;96748;-82
2023/12/19 19:11:50;;;;;;;20.98;10.70;;;;;;;5.47;72.66;102319.44;10334315;28;97199;-83
2023/12/19 19:16:54;;;;;;;18.60;9.85;;;;;;;5.44;73.19;102321.13;10370033;28;96650;-82
2023/12/19 19:21:57;;;;;;;20.13;10.18;;;;;;;5.42;73.14;102315.88;10369516;28;96702;-83
2023/12/19 19:27:06;;;;;;;16.33;9.57;;;;;;;5.40;72.70;102317.59;10373578;28;96579;-83
2023/12/19 19:32:14;;;;;;;18.23;10.00;;;;;;;5.40;72.96;102316.72;10377491;28;96838;-83
2023/12/19 19:37:18;;;;;;;18.63;9.05;;;;;;;5.41;73.60;102310.66;10376314;28;96789;-83
2023/12/19 19:42:26;;;;;;;17.75;9.63;;;;;;;5.37;73.17;102317.56;10376026;28;96738;-83
2023/12/19 19:47:32;;;;;;;19.38;10.05;;;;;;;5.44;73.25;102321.13;10377029;28;96972;-83
2023/12/19 19:52:39;;;;;;;18.10;9.52;;;;;;;5.41;72.73;102310.66;10374881;28;96785;-83
2023/12/19 19:57:53;;;;;;;17.70;9.20;;;;;;;5.54;73.28;102308.22;10375623;28;96679;-83
2023/12/19 20:02:57;;;;;;;21.75;10.25;;;;;;;5.52;72.96;102296.00;10376315;28;96668;-83
2023/12/19 20:08:08;;;;;;;17.27;9.07;;;;;;;5.54;73.15;102294.28;10375819;28;96998;-82
2023/12/19 20:13:15;;;;;;;20.58;10.32;;;;;;;5.57;73.17;102291.75;10374255;28;97251;-83
2023/12/19 20:18:20;;;;;;;18.17;10.65;;;;;;;5.54;73.32;102286.44;10375663;28;96902;-82
2023/12/19 20:23:27;;;;;;;20.02;10.10;;;;;;;5.53;73.41;102276.88;10409459;28;96628;-83
2023/12/19 20:28:36;;;;;;;17.67;9.65;;;;;;;5.51;72.87;102273.38;10417469;28;97218;-83
2023/12/19 20:33:45;;;;;;;16.45;9.13;;;;;;;5.59;72.80;102276.94;10416996;28;96651;-83
2023/12/19 20:38:48;;;;;;;20.38;10.10;;;;;;;5.60;72.80;102281.31;10414105;27;96636;-83
2023/12/19 20:43:54;;;;;;;18.13;9.98;;;;;;;5.70;72.51;102275.34;10414887;28;96766;-83
2023/12/19 20:48:57;;;;;;;18.08;8.77;;;;;;;5.78;72.52;102267.63;10415980;28;97017;-82
2023/12/19 20:54:01;;;;;;;19.00;9.27;;;;;;;5.75;72.42;102259.72;10406479;28;97264;-82
2023/12/19 20:59:09;;;;;;;15.70;9.13;;;;;;;5.73;72.76;102261.47;10399980;28;96796;-83
2023/12/19 21:04:12;;;;;;;17.98;9.77;;;;;;;5.73;72.71;102259.72;10373920;28;97233;-83
2023/12/19 21:09:17;;;;;;;16.45;9.68;;;;;;;5.68;72.63;102250.94;10374130;28;96897;-83
2023/12/19 21:14:26;;;;;;;17.05;9.85;;;;;;;5.68;73.37;102256.16;10374508;28;97092;-83
2023/12/19 21:19:30;;;;;;;22.45;10.93;;;;;;;5.74;73.06;102258.88;10374759;28;98819;-83
2023/12/19 21:24:35;;;;;;;18.47;9.43;;;;;;;5.72;73.16;102252.75;10373234;28;96878;-83
2023/12/19 21:29:43;;;;;;;23.67;10.75;;;;;;;5.76;73.59;102251.94;10373865;28;97105;-83
2023/12/19 21:34:49;;;;;;;22.08;11.07;;;;;;;5.78;73.48;102258.03;10371697;28;96852;-83
2023/12/19 21:39:56;;;;;;;22.60;9.90;;;;;;;5.78;73.08;102250.19;10372751;28;96787;-83
2023/12/19 21:45:02;;;;;;;21.02;9.27;;;;;;;5.77;74.18;102244.94;10373385;28;96792;-83
2023/12/19 21:50:07;;;;;;;20.20;10.15;;;;;;;5.72;74.41;102237.06;10372508;28;96673;-83
2023/12/19 21:55:11;;;;;;;;;;;;;;;5.71;74.35;102230.06;10372800;28;96805;-83
2023/12/19 22:00:20;;;;;;;16.40;9.90;;;;;;;5.73;73.87;102230.13;10372635;28;97264;-83
2023/12/19 22:05:24;;;;;;;20.10;10.38;;;;;;;5.72;74.13;102230.97;10372132;28;97423;-83
2023/12/19 22:10:31;;;;;;;21.25;9.98;;;;;;;5.69;75.27;102234.44;10373103;28;96649;-82
2023/12/19 22:15:38;;;;;;;21.02;10.35;;;;;;;5.61;76.47;102242.16;10372340;28;97239;-82
2023/12/19 22:20:42;;;;;;;20.23;9.80;;;;;;;5.56;77.50;102246.47;10372089;28;97604;-83
2023/12/19 22:25:47;;;;;;;21.10;10.80;;;;;;;5.50;77.14;102240.28;10370500;28;97202;-83
2023/12/19 22:30:56;;;;;;;21.70;11.97;;;;;;;5.44;78.44;102245.41;10372379;28;97438;-85
2023/12/19 22:36:02;;;;;;;18.67;10.32;;;;;;;5.37;78.35;102234.03;10376639;28;97227;-84
2023/12/19 22:41:07;;;;;;;22.80;10.52;;;;;;;5.33;79.86;102228.72;10412873;28;96668;-85
2023/12/19 22:46:17;;;;;;;22.40;10.73;;;;;;;5.33;80.31;102218.28;10412735;28;96672;-85
2023/12/19 22:51:23;;;;;;;19.70;10.02;;;;;;;5.26;80.79;102225.16;10384209;28;96883;-86
2023/12/19 22:56:27;;;;;;;20.55;11.05;;;;;;;5.21;80.36;102219.03;10371636;28;96737;-85
2023/12/19 23:01:35;;;;;;;22.25;10.68;;;;;;;5.26;79.71;102216.50;10375503;28;97301;-84
2023/12/19 23:06:55;;;;;;;22.42;10.45;;;;;;;5.29;79.72;102209.56;10377258;28;97017;-85
2023/12/19 23:11:59;;;;;;;20.33;10.05;;;;;;;5.27;80.08;102206.06;10395375;28;96728;-84
2023/12/19 23:17:08;;;;;;;19.50;10.83;;;;;;;5.24;80.54;102203.38;10417588;28;97358;-84
2023/12/19 23:22:29;;;;;;;;;;;;;;;;;;;;;
2023/12/19 23:27:35;;;;;;;18.58;9.18;;;;;;;5.23;82.22;102192.94;10417904;28;96597;-87
2023/12/19 23:32:50;;;;;;;19.88;9.98;;;;;;;5.21;82.00;102184.22;10418971;28;96838;-87